Time;durP1;ratioP1;P1;durP2;ratioP2;P2;SDS_P1;SDS_P2;PMS_P1;PMS_P2;Temp;Humidity;BMP_temperature;BMP_pressure;BME280_temperature;BME280_humidity;BME280_pressure;Samples;Min_cycle;Max_cycle;Signal;HPM_P1;HPM_P2
2023/09/16 00:43:01;;;;;;;4.73;3.53;;;9.70;99.90;;;;;;4965190;27;21697;-83
2023/09/16 01:13:12;;;;;;;4.87;3.67;;;9.30;99.90;;;;;;4883721;28;20196;-85
2023/09/16 01:43:46;;;;;;;6.07;4.40;;;9.00;99.90;;;;;;4688949;29;20240;-83
2023/09/16 02:09:14;;;;;;;5.37;3.67;;;9.50;99.90;;;;;;4534022;30;20253;-82
2023/09/16 02:49:48;;;;;;;6.47;3.83;;;8.90;99.90;;;;;;4675910;29;20403;-83
2023/09/16 03:14:35;;;;;;;7.90;4.13;;;8.50;99.90;;;;;;4877079;28;20328;-86
2023/09/16 03:40:30;;;;;;;5.73;4.33;;;8.20;99.90;;;;;;4778034;29;20289;-83
2023/09/16 04:00:47;;;;;;;6.77;4.53;;;8.50;99.90;;;;;;4592755;30;21003;-83
2023/09/16 04:36:08;;;;;;;6.03;4.50;;;8.70;99.90;;;;;;4698372;29;20195;-89
2023/09/16 05:01:34;;;;;;;7.97;5.97;;;9.70;99.90;;;;;;4749954;29;20618;-87
2023/09/16 05:27:06;;;;;;;9.03;5.17;;;10.80;99.90;;;;;;4844715;28;20294;-83
2023/09/16 06:06:58;;;;;;;7.33;4.60;;;12.60;99.90;;;;;;4798109;28;20573;-86
2023/09/16 06:32:21;;;;;;;7.80;4.73;;;13.70;99.90;;;;;;4693757;29;21316;-87
2023/09/16 06:47:58;;;;;;;6.23;4.13;;;14.40;99.90;;;;;;4625383;29;20300;-84
2023/09/16 07:08:34;;;;;;;4.43;4.00;;;15.30;99.90;;;;;;4639563;30;20915;-83
2023/09/16 07:38:32;;;;;;;7.20;3.80;;;16.80;96.20;;;;;;4563254;30;20793;-82
2023/09/16 08:04:14;;;;;;;3.30;3.00;;;17.40;92.10;;;;;;4591395;30;20260;-83
2023/09/16 08:34:38;;;;;;;3.30;3.00;;;18.10;89.50;;;;;;4710807;29;20198;-82
2023/09/16 09:05:06;;;;;;;6.57;3.07;;;18.90;83.60;;;;;;4727257;29;20282;-82
2023/09/16 09:35:31;;;;;;;4.33;3.00;;;19.20;81.50;;;;;;4887496;28;20639;-84
2023/09/16 09:55:56;;;;;;;3.90;2.80;;;19.50;79.30;;;;;;4818505;29;20305;-82
2023/09/16 10:20:51;;;;;;;3.33;2.47;;;19.80;78.20;;;;;;4784675;29;20263;-85
2023/09/16 10:46:35;;;;;;;3.07;2.57;;;20.30;75.00;;;;;;4702398;29;20233;-85
2023/09/16 11:16:55;;;;;;;2.88;2.50;;;20.70;69.00;;;;;;4851105;28;21726;-84
2023/09/16 11:42:13;;;;;;;3.90;3.15;;;21.00;68.20;;;;;;4746086;29;20221;-81
2023/09/16 12:12:12;;;;;;;3.13;2.83;;;21.30;66.70;;;;;;4665563;29;20490;-83
2023/09/16 12:33:01;;;;;;;6.22;2.80;;;21.70;64.00;;;;;;4819030;29;20201;-83
2023/09/16 12:58:23;;;;;;;3.10;2.80;;;21.80;63.50;;;;;;4784932;29;20556;-86
2023/09/16 13:44:09;;;;;;;5.30;2.92;;;22.70;62.80;;;;;;4674199;30;20344;-83
2023/09/16 14:13:53;;;;;;;3.38;2.60;;;23.00;62.40;;;;;;4790937;29;20221;-84
2023/09/16 14:34:41;;;;;;;5.18;3.50;;;22.60;63.10;;;;;;4847804;28;20816;-84
2023/09/16 15:05:00;;;;;;;3.03;2.83;;;22.00;63.10;;;;;;4813505;29;20258;-82
2023/09/16 16:05:35;;;;;;;3.20;2.90;;;21.10;65.90;;;;;;4767841;29;20647;-85
2023/09/16 16:21:05;;;;;;;6.07;3.27;;;20.60;70.40;;;;;;4703565;29;20201;-84
2023/09/16 16:41:32;;;;;;;6.68;3.25;;;20.10;76.50;;;;;;4747034;29;20284;-84
2023/09/16 17:06:46;;;;;;;4.47;3.60;;;19.30;82.60;;;;;;4793589;29;20257;-83
2023/09/16 17:47:36;;;;;;;9.40;4.80;;;18.10;92.00;;;;;;4985423;27;20210;-85
2023/09/16 18:12:43;;;;;;;4.60;4.10;;;18.10;91.80;;;;;;4808984;29;20741;-82
2023/09/16 18:33:06;;;;;;;4.97;4.47;;;17.80;94.00;;;;;;4633283;30;20221;-84
2023/09/16 19:03:36;;;;;;;7.73;4.67;;;17.50;98.30;;;;;;4713827;29;20217;-84
2023/09/16 19:28:43;;;;;;;8.30;4.93;;;17.00;99.90;;;;;;4687656;29;20516;-84
2023/09/16 19:59:25;;;;;;;5.67;4.83;;;16.90;99.90;;;;;;4700576;29;21039;-83
2023/09/16 20:24:41;;;;;;;8.00;5.43;;;16.30;99.90;;;;;;4801270;29;20269;-83
2023/09/16 21:05:16;;;;;;;5.77;5.27;;;15.60;99.90;;;;;;5016071;28;20354;-83
2023/09/16 21:30:02;;;;;;;6.57;5.87;;;15.50;99.90;;;;;;4876907;28;20483;-84
2023/09/16 21:55:50;;;;;;;6.53;5.70;;;15.00;99.90;;;;;;4777497;29;20652;-83
2023/09/16 22:36:35;;;;;;;10.53;7.60;;;14.40;99.90;;;;;;4769074;29;21230;-86
2023/09/16 22:56:20;;;;;;;13.30;8.07;;;14.10;99.90;;;;;;4758124;29;20202;-84
2023/09/16 23:22:12;;;;;;;8.43;6.87;;;14.00;99.90;;;;;;4774763;29;20213;-83
2023/09/16 23:42:21;;;;;;;8.47;6.93;;;13.30;99.90;;;;;;4720069;29;20634;-83
